Airfield :
LOGIN :

Register | Disclaimer

   EN    FR    IT 

 










Legend :    VFR   Marginal VFR   IFR   Intensive IFR   Very Intensive IFR
Visi :
Ceiling :
>= 8 km
>= 3000ft
5 to 8 km
1000 to 3000 ft
1500m to 5 km
500 to 1000 ft
800 to 1500m
200 to 500 ft
< 800m
< 200 ft
Symbols :   Thunderstorms  Fog  Heavy snow  Heavy precipitations  Wind > 20 kt
SIGMETs :     Misc.  Thunderstorms  Icing  Turbulence  Mountain Waves  Volcanic Ashes






- Airport Elevation : 86 ft
- IATA code : HAU


ENHD - Haugesund

CURRENT METAR :
  • 180250Z AUTO 34012KT 9999 FEW011/// OVC045/// 12/10 Q1014

EXPIRED METARs :
  • 180220Z AUTO 34016KT 9999 FEW010/// OVC039/// 12/10 Q1014
  • 180150Z AUTO 34016KT 9999 FEW007/// OVC032/// 12/11 Q1013
  • 180120Z AUTO 35015KT 9999 BKN006/// BKN018/// OVC023/// 12/11 Q1013
  • 180050Z AUTO 36016KT 7000 BKN003/// OVC005/// 12/11 Q1012
  • 180020Z AUTO 35016KT 4800 BR VV005 12/11 Q1012

TAF TAF ENHD
Valid from the 18 at 03:00 until the 18 at 12:00 UTC


180200Z 1803/1812 34015KT 9999 FEW012 BKN035
PROB30
TEMPO 1807/1812 BKN008



MET'MAP, your aeronautical weather chart ! - Copyright ORBIFLY December 2007 - Disclaimer

ORBIFLY MET'MAP TEAM :

Programming & Development : Alexandra Zaïnal
Concept & original design : Baudouin d'Aumeries
Assistance for programming : Marc-Olivier Méhu
Technical & hardware support : Manuel Goepfert

Contact : metmap@orbifly.com




SOURCES & CREDITS :

   NOAA